Time;durP1;ratioP1;P1;durP2;ratioP2;P2;SDS_P1;SDS_P2;PMS_P1;PMS_P2;Temp;Humidity;BMP_temperature;BMP_pressure;BME280_temperature;BME280_humidity;BME280_pressure;Samples;Min_cycle;Max_cycle;Signal;HPM_P1;HPM_P2
2023/07/25 00:00:06;;;;;;;8.70;5.88;;;;;;;;;;2074584;28;20021;-95
2023/07/25 00:01:07;;;;;;;8.75;5.28;;;;;;;;;;2064411;28;20019;-95
2023/07/25 00:02:07;;;;;;;9.35;6.18;;;;;;;;;;1713277;28;9999997;-95
2023/07/25 00:03:08;;;;;;;9.10;5.53;;;;;;;;;;2064822;28;20022;-96
2023/07/25 00:04:08;;;;;;;9.27;5.38;;;;;;;;;;2064635;28;20018;-94
2023/07/25 00:05:09;;;;;;;9.07;5.43;;;;;;;;;;2056504;28;20434;-96
2023/07/25 00:06:09;;;;;;;11.52;5.55;;;;;;;;;;2055834;28;20393;-95
2023/07/25 00:07:10;;;;;;;9.93;5.93;;;;;;;;;;2056419;28;20085;-95
2023/07/25 00:08:10;;;;;;;8.52;5.68;;;;;;;;;;2064699;28;20033;-94
2023/07/25 00:09:11;;;;;;;8.45;5.25;;;;;;;;;;2080855;28;20028;-95
2023/07/25 00:10:11;;;;;;;11.57;6.60;;;;;;;;;;2072542;28;20263;-96
2023/07/25 00:11:13;;;;;;;10.27;5.68;;;;;;;;;;2064596;28;20038;-96
2023/07/25 00:12:14;;;;;;;8.45;5.47;;;;;;;;;;2056520;28;20022;-95
2023/07/25 00:13:14;;;;;;;10.57;5.65;;;;;;;;;;2064640;28;20472;-95
2023/07/25 00:14:15;;;;;;;8.60;5.75;;;;;;;;;;2064316;28;20046;-95
2023/07/25 00:15:15;;;;;;;9.65;6.03;;;;;;;;;;2064549;28;20097;-94
2023/07/25 00:16:16;;;;;;;8.45;5.55;;;;;;;;;;2064340;28;20406;-96
2023/07/25 00:17:16;;;;;;;9.15;5.70;;;;;;;;;;2056335;28;20037;-95
2023/07/25 00:18:17;;;;;;;11.80;5.45;;;;;;;;;;2064155;28;20038;-96
2023/07/25 00:19:17;;;;;;;8.63;5.65;;;;;;;;;;2056258;28;20026;-95
2023/07/25 00:20:18;;;;;;;8.43;5.25;;;;;;;;;;2056564;28;20109;-96
2023/07/25 00:21:18;;;;;;;10.98;5.68;;;;;;;;;;2064182;28;20026;-94
2023/07/25 00:22:19;;;;;;;11.15;5.65;;;;;;;;;;2064184;28;20042;-95
2023/07/25 00:23:19;;;;;;;8.75;5.28;;;;;;;;;;2056110;28;20085;-95
2023/07/25 00:24:20;;;;;;;8.25;4.97;;;;;;;;;;2064728;28;20505;-95
2023/07/25 00:25:20;;;;;;;11.73;5.00;;;;;;;;;;2065575;28;20178;-95
2023/07/25 00:26:21;;;;;;;10.15;5.82;;;;;;;;;;2057092;28;20119;-93
2023/07/25 00:27:21;;;;;;;8.70;5.82;;;;;;;;;;2057615;28;20121;-94
2023/07/25 00:28:22;;;;;;;10.20;5.88;;;;;;;;;;2057550;28;20061;-94
2023/07/25 00:29:23;;;;;;;10.18;5.85;;;;;;;;;;2060571;28;20094;-94
2023/07/25 00:30:24;;;;;;;10.85;5.53;;;;;;;;;;2063597;28;20022;-95
2023/07/25 00:31:25;;;;;;;9.35;5.35;;;;;;;;;;2072570;28;20023;-94
2023/07/25 00:32:25;;;;;;;9.13;5.75;;;;;;;;;;2071110;28;20147;-95
2023/07/25 00:33:25;;;;;;;9.13;5.18;;;;;;;;;;2070337;28;20081;-95
2023/07/25 00:34:26;;;;;;;10.35;5.53;;;;;;;;;;2067677;28;20018;-95
2023/07/25 00:35:26;;;;;;;9.52;5.47;;;;;;;;;;2065910;28;20022;-95
2023/07/25 00:36:27;;;;;;;10.80;6.10;;;;;;;;;;2059547;28;20029;-95
2023/07/25 00:37:29;;;;;;;9.57;5.97;;;;;;;;;;2060510;28;20037;-96
2023/07/25 00:38:29;;;;;;;8.77;5.47;;;;;;;;;;2061074;28;20022;-95
2023/07/25 00:39:30;;;;;;;12.13;6.03;;;;;;;;;;2071117;28;20141;-92
2023/07/25 00:40:30;;;;;;;8.57;5.53;;;;;;;;;;2067675;28;20030;-95
2023/07/25 00:41:31;;;;;;;10.30;6.10;;;;;;;;;;2056716;28;20049;-96
2023/07/25 00:42:31;;;;;;;9.65;5.80;;;;;;;;;;2064197;28;20041;-95
2023/07/25 00:43:32;;;;;;;9.88;6.15;;;;;;;;;;2064516;28;20034;-95
2023/07/25 00:44:32;;;;;;;8.02;5.38;;;;;;;;;;2064402;28;20033;-95
2023/07/25 00:45:33;;;;;;;10.82;6.13;;;;;;;;;;2064388;28;20050;-95
2023/07/25 00:46:34;;;;;;;10.43;5.50;;;;;;;;;;2064291;28;20097;-94
2023/07/25 00:47:35;;;;;;;7.85;5.55;;;;;;;;;;2056464;28;20019;-95
2023/07/25 00:48:35;;;;;;;9.85;7.45;;;;;;;;;;2056390;28;20023;-95
2023/07/25 00:49:36;;;;;;;12.90;6.22;;;;;;;;;;2064364;28;20037;-94
2023/07/25 00:50:36;;;;;;;10.05;6.00;;;;;;;;;;2056134;28;20081;-96
2023/07/25 00:51:37;;;;;;;8.82;5.55;;;;;;;;;;2064543;28;20073;-94
2023/07/25 00:52:38;;;;;;;8.30;5.45;;;;;;;;;;2064289;28;20129;-95
2023/07/25 00:53:38;;;;;;;9.45;5.80;;;;;;;;;;2056205;28;20030;-94
2023/07/25 00:54:45;;;;;;;7.60;4.85;;;;;;;;;;2064463;28;20026;-95
2023/07/25 00:55:48;;;;;;;7.28;4.90;;;;;;;;;;2057092;28;20023;-95
2023/07/25 00:56:48;;;;;;;9.32;5.88;;;;;;;;;;2064334;28;20030;-96
2023/07/25 00:57:49;;;;;;;8.63;5.35;;;;;;;;;;2064382;28;20125;-96
2023/07/25 00:58:50;;;;;;;7.15;6.03;;;;;;;;;;2056388;28;20034;-96
2023/07/25 00:59:52;;;;;;;9.88;6.13;;;;;;;;;;2064149;28;20026;-95
2023/07/25 01:00:52;;;;;;;9.05;6.00;;;;;;;;;;2064107;28;20030;-95
2023/07/25 01:01:52;;;;;;;10.88;6.25;;;;;;;;;;2056363;28;20480;-95
2023/07/25 01:02:53;;;;;;;14.40;6.13;;;;;;;;;;2056143;28;20038;-95
2023/07/25 01:03:55;;;;;;;8.82;5.80;;;;;;;;;;2057313;28;20473;-95
2023/07/25 01:04:55;;;;;;;12.32;6.00;;;;;;;;;;2057858;28;20015;-96
2023/07/25 01:05:56;;;;;;;8.70;5.70;;;;;;;;;;2069736;28;20069;-93
2023/07/25 01:06:59;;;;;;;8.73;5.40;;;;;;;;;;2081307;28;20029;-90
2023/07/25 01:08:00;;;;;;;10.38;6.47;;;;;;;;;;2069316;28;20105;-95
2023/07/25 01:09:00;;;;;;;8.88;5.80;;;;;;;;;;2064786;28;20457;-95
2023/07/25 01:10:00;;;;;;;10.85;6.22;;;;;;;;;;2057568;28;20066;-95
2023/07/25 01:11:01;;;;;;;7.90;5.90;;;;;;;;;;2056254;28;20026;-95
2023/07/25 01:12:05;;;;;;;10.73;6.03;;;;;;;;;;2064421;28;20402;-94
2023/07/25 01:13:06;;;;;;;9.57;6.10;;;;;;;;;;2056086;28;20130;-96
2023/07/25 01:14:07;;;;;;;10.40;6.15;;;;;;;;;;2064670;28;20029;-95
2023/07/25 01:15:08;;;;;;;10.18;5.60;;;;;;;;;;2080567;28;20026;-95
2023/07/25 01:16:15;;;;;;;9.25;5.72;;;;;;;;;;2064428;28;20034;-95
2023/07/25 01:17:20;;;;;;;8.52;5.78;;;;;;;;;;2065136;28;20485;-96
2023/07/25 01:18:20;;;;;;;8.88;5.50;;;;;;;;;;2065906;28;20026;-95
2023/07/25 01:19:27;;;;;;;10.15;5.85;;;;;;;;;;2057878;28;20031;-95
2023/07/25 01:20:28;;;;;;;9.82;6.03;;;;;;;;;;2058459;28;20093;-95
2023/07/25 01:21:29;;;;;;;8.05;4.90;;;;;;;;;;2057708;28;20041;-95
2023/07/25 01:22:33;;;;;;;10.38;5.40;;;;;;;;;;2057753;28;20025;-95
2023/07/25 01:23:36;;;;;;;8.52;5.20;;;;;;;;;;2065830;28;20049;-95
2023/07/25 01:24:42;;;;;;;8.45;5.50;;;;;;;;;;2066028;28;20041;-94
2023/07/25 01:25:46;;;;;;;8.27;5.07;;;;;;;;;;2065652;28;20032;-95
2023/07/25 01:26:46;;;;;;;8.67;5.77;;;;;;;;;;1708011;28;10218332;-95
2023/07/25 01:28:11;;;;;;;7.13;5.18;;;;;;;;;;2064043;28;20034;-94
2023/07/25 01:29:11;;;;;;;7.13;4.95;;;;;;;;;;2062930;28;20014;-96
2023/07/25 01:30:19;;;;;;;8.48;5.28;;;;;;;;;;2073997;28;20014;-96
2023/07/25 01:31:20;;;;;;;8.93;5.60;;;;;;;;;;2065893;28;20019;-94
2023/07/25 01:32:20;;;;;;;11.70;5.68;;;;;;;;;;2065789;28;20022;-95
2023/07/25 01:33:21;;;;;;;9.15;5.72;;;;;;;;;;2065926;28;20064;-94
2023/07/25 01:34:21;;;;;;;12.77;5.70;;;;;;;;;;2057476;28;20477;-94
2023/07/25 01:35:22;;;;;;;11.85;5.50;;;;;;;;;;2065779;28;20124;-95
2023/07/25 01:36:22;;;;;;;8.32;5.65;;;;;;;;;;2065541;28;20044;-93
2023/07/25 01:37:23;;;;;;;7.53;5.40;;;;;;;;;;2057534;28;20030;-95
2023/07/25 01:38:23;;;;;;;7.22;5.20;;;;;;;;;;2065780;28;20026;-94
2023/07/25 01:39:24;;;;;;;10.02;5.53;;;;;;;;;;2065710;28;20465;-94
2023/07/25 01:40:24;;;;;;;9.10;5.93;;;;;;;;;;2065778;28;20018;-95
2023/07/25 01:41:27;;;;;;;9.65;6.00;;;;;;;;;;2073777;28;20090;-93
2023/07/25 01:42:28;;;;;;;7.47;5.43;;;;;;;;;;2073418;28;20022;-94
2023/07/25 01:43:28;;;;;;;8.25;5.15;;;;;;;;;;2057613;28;20030;-94
2023/07/25 01:44:29;;;;;;;7.18;5.30;;;;;;;;;;2057542;28;20134;-94
2023/07/25 01:45:29;;;;;;;8.45;5.43;;;;;;;;;;2065447;28;20022;-94
2023/07/25 01:46:29;;;;;;;9.05;5.30;;;;;;;;;;2065546;28;20077;-94
2023/07/25 01:47:30;;;;;;;9.48;5.90;;;;;;;;;;2065503;28;20026;-95
2023/07/25 01:48:30;;;;;;;8.50;5.72;;;;;;;;;;2057213;28;20049;-95
2023/07/25 01:49:31;;;;;;;7.85;5.55;;;;;;;;;;2065576;28;20142;-96
2023/07/25 01:50:32;;;;;;;9.80;6.82;;;;;;;;;;2065410;28;20026;-94
2023/07/25 01:51:32;;;;;;;8.75;6.28;;;;;;;;;;2073623;28;20433;-94
2023/07/25 01:52:32;;;;;;;7.45;5.78;;;;;;;;;;2073555;28;20041;-95
2023/07/25 01:53:33;;;;;;;6.18;5.18;;;;;;;;;;1699566;28;10426429;-95
2023/07/25 01:54:33;;;;;;;9.50;5.50;;;;;;;;;;2065604;28;20030;-96
2023/07/25 01:55:36;;;;;;;11.32;5.75;;;;;;;;;;2066143;28;20022;-94
2023/07/25 01:56:36;;;;;;;7.45;5.03;;;;;;;;;;2065331;28;20030;-95
2023/07/25 01:57:37;;;;;;;9.60;5.78;;;;;;;;;;2065481;28;20062;-95
2023/07/25 01:58:37;;;;;;;10.40;5.60;;;;;;;;;;2067622;28;20045;-95
2023/07/25 01:59:38;;;;;;;7.93;6.00;;;;;;;;;;2070125;28;20076;-95
2023/07/25 02:00:38;;;;;;;8.88;6.18;;;;;;;;;;2063833;28;20034;-95
2023/07/25 02:01:39;;;;;;;8.75;5.60;;;;;;;;;;2079465;28;20026;-95
2023/07/25 02:02:39;;;;;;;11.05;5.75;;;;;;;;;;2074041;28;20044;-94
2023/07/25 02:03:40;;;;;;;9.23;5.43;;;;;;;;;;2057811;28;20027;-95
2023/07/25 02:04:40;;;;;;;9.93;5.00;;;;;;;;;;2065786;28;20030;-94
2023/07/25 02:05:40;;;;;;;10.48;5.93;;;;;;;;;;2065641;28;20165;-94
2023/07/25 02:06:42;;;;;;;11.00;5.32;;;;;;;;;;2065738;28;20057;-94
2023/07/25 02:07:43;;;;;;;10.52;5.10;;;;;;;;;;2057688;28;20426;-93
2023/07/25 02:08:43;;;;;;;12.45;5.93;;;;;;;;;;2057528;28;20115;-95
2023/07/25 02:09:43;;;;;;;9.95;5.25;;;;;;;;;;2065276;28;20565;-94
2023/07/25 02:10:44;;;;;;;7.88;5.20;;;;;;;;;;2065349;28;20527;-94
2023/07/25 02:11:47;;;;;;;8.50;5.57;;;;;;;;;;2057147;28;20031;-94
2023/07/25 02:12:48;;;;;;;9.63;5.30;;;;;;;;;;2065581;28;20111;-95
2023/07/25 02:13:48;;;;;;;6.93;5.20;;;;;;;;;;2065360;28;20510;-93
2023/07/25 02:14:49;;;;;;;7.05;5.10;;;;;;;;;;2062441;28;20058;-95
2023/07/25 02:15:49;;;;;;;7.82;5.68;;;;;;;;;;2081672;28;20029;-92
2023/07/25 02:16:49;;;;;;;8.63;5.40;;;;;;;;;;2082023;28;20029;-94
2023/07/25 02:17:51;;;;;;;8.20;5.13;;;;;;;;;;2065213;28;20030;-95
2023/07/25 02:18:52;;;;;;;10.77;5.68;;;;;;;;;;2065150;28;20220;-95
2023/07/25 02:19:53;;;;;;;11.45;5.57;;;;;;;;;;2057151;28;20498;-95
2023/07/25 02:20:57;;;;;;;8.10;5.53;;;;;;;;;;2057360;28;20525;-94
2023/07/25 02:21:57;;;;;;;8.45;5.45;;;;;;;;;;2065242;28;20030;-95
2023/07/25 02:22:59;;;;;;;7.10;5.55;;;;;;;;;;2065227;28;20022;-95
2023/07/25 02:24:00;;;;;;;8.73;5.57;;;;;;;;;;2065536;28;20104;-95
2023/07/25 02:25:00;;;;;;;7.82;5.40;;;;;;;;;;2057198;28;20030;-93
2023/07/25 02:26:00;;;;;;;10.65;5.75;;;;;;;;;;2057195;28;20498;-94
2023/07/25 02:27:01;;;;;;;9.70;5.55;;;;;;;;;;2065278;28;20037;-94
2023/07/25 02:28:01;;;;;;;8.77;5.50;;;;;;;;;;2057213;28;20488;-94
2023/07/25 02:29:02;;;;;;;9.35;5.50;;;;;;;;;;2064396;28;20115;-94
2023/07/25 02:30:06;;;;;;;9.95;5.53;;;;;;;;;;2065095;28;20077;-94
2023/07/25 02:31:06;;;;;;;9.05;5.25;;;;;;;;;;2057444;28;20034;-94
2023/07/25 02:32:07;;;;;;;9.80;5.38;;;;;;;;;;2064866;28;20034;-96
2023/07/25 02:33:07;;;;;;;8.07;5.18;;;;;;;;;;2081343;28;20485;-95
2023/07/25 02:34:08;;;;;;;9.00;5.47;;;;;;;;;;2081331;28;20053;-95
2023/07/25 02:35:08;;;;;;;8.15;5.53;;;;;;;;;;2065118;28;20026;-94
2023/07/25 02:36:09;;;;;;;11.82;5.75;;;;;;;;;;2057021;28;20512;-95
2023/07/25 02:37:09;;;;;;;9.82;6.05;;;;;;;;;;2065277;28;20053;-94
2023/07/25 02:38:10;;;;;;;10.85;5.40;;;;;;;;;;2065014;28;20042;-96
2023/07/25 02:39:10;;;;;;;14.30;5.95;;;;;;;;;;2081282;28;20040;-96
2023/07/25 02:40:13;;;;;;;8.88;5.93;;;;;;;;;;2073090;28;20026;-95
2023/07/25 02:41:13;;;;;;;9.52;6.00;;;;;;;;;;2064819;28;20035;-94
2023/07/25 02:42:14;;;;;;;13.25;5.88;;;;;;;;;;2064858;28;20045;-95
2023/07/25 02:43:14;;;;;;;9.25;5.10;;;;;;;;;;2065013;28;20034;-95
2023/07/25 02:44:15;;;;;;;9.63;5.25;;;;;;;;;;2064925;28;20061;-96
2023/07/25 02:45:15;;;;;;;6.68;5.30;;;;;;;;;;2057014;28;20031;-96
2023/07/25 02:46:15;;;;;;;13.20;5.78;;;;;;;;;;2057222;28;20030;-95
2023/07/25 02:47:16;;;;;;;8.85;5.45;;;;;;;;;;2065008;28;20137;-95
2023/07/25 02:48:17;;;;;;;8.50;6.00;;;;;;;;;;2057102;28;20026;-95
2023/07/25 02:49:17;;;;;;;10.40;5.93;;;;;;;;;;2056969;28;20057;-94
2023/07/25 02:50:18;;;;;;;9.73;5.72;;;;;;;;;;2057083;28;20525;-95
2023/07/25 02:51:18;;;;;;;8.15;5.35;;;;;;;;;;2056845;28;20482;-95
2023/07/25 02:52:19;;;;;;;7.35;5.72;;;;;;;;;;2057188;28;20034;-95
2023/07/25 02:53:19;;;;;;;10.55;5.78;;;;;;;;;;2072955;28;20029;-94
2023/07/25 02:54:19;;;;;;;9.35;6.03;;;;;;;;;;2072952;28;20030;-95
2023/07/25 02:55:20;;;;;;;7.95;6.13;;;;;;;;;;2065075;28;20057;-96
2023/07/25 02:56:21;;;;;;;10.43;5.50;;;;;;;;;;2065148;28;20034;-95
2023/07/25 02:57:22;;;;;;;11.00;5.93;;;;;;;;;;2058739;28;20081;-95
2023/07/25 02:58:23;;;;;;;10.27;6.55;;;;;;;;;;2066142;28;20430;-95
2023/07/25 02:59:23;;;;;;;8.23;6.07;;;;;;;;;;2071857;28;20133;-94
2023/07/25 03:00:24;;;;;;;7.22;6.03;;;;;;;;;;2065822;28;20031;-93
2023/07/25 03:01:24;;;;;;;7.65;5.57;;;;;;;;;;2072912;28;20061;-93
2023/07/25 03:02:25;;;;;;;9.50;6.18;;;;;;;;;;2074038;28;20034;-94
2023/07/25 03:03:27;;;;;;;9.93;6.57;;;;;;;;;;2073346;28;20014;-93
2023/07/25 03:04:27;;;;;;;9.43;6.70;;;;;;;;;;2069524;28;20537;-95
2023/07/25 03:05:28;;;;;;;9.80;6.30;;;;;;;;;;2056744;28;20042;-96
2023/07/25 03:06:28;;;;;;;9.45;5.90;;;;;;;;;;2057048;28;20074;-95
2023/07/25 03:07:29;;;;;;;9.05;5.22;;;;;;;;;;2064896;28;20514;-95
2023/07/25 03:08:29;;;;;;;8.15;5.20;;;;;;;;;;2065806;28;20030;-95
2023/07/25 03:09:30;;;;;;;7.10;5.15;;;;;;;;;;2064933;28;20092;-96
2023/07/25 03:10:31;;;;;;;7.10;5.18;;;;;;;;;;2065036;28;20084;-95
2023/07/25 03:11:32;;;;;;;7.05;5.18;;;;;;;;;;2056977;28;20502;-95
2023/07/25 03:12:33;;;;;;;6.72;5.22;;;;;;;;;;2056841;28;20058;-95
2023/07/25 03:13:33;;;;;;;8.10;5.65;;;;;;;;;;2056826;28;20027;-95
2023/07/25 03:14:34;;;;;;;7.28;5.18;;;;;;;;;;2056869;28;20031;-96
2023/07/25 03:15:34;;;;;;;8.40;5.38;;;;;;;;;;2056943;28;20474;-95
2023/07/25 03:16:34;;;;;;;9.30;5.60;;;;;;;;;;2057004;28;20053;-96
2023/07/25 03:17:35;;;;;;;9.80;5.53;;;;;;;;;;2073097;28;20036;-95
2023/07/25 03:18:35;;;;;;;9.35;5.80;;;;;;;;;;2072948;28;20026;-95
2023/07/25 03:19:36;;;;;;;9.38;5.38;;;;;;;;;;2057131;28;20426;-95
2023/07/25 03:20:36;;;;;;;9.40;5.13;;;;;;;;;;2072899;28;20030;-95
2023/07/25 03:21:37;;;;;;;8.07;5.40;;;;;;;;;;2072814;28;20030;-95
2023/07/25 03:22:37;;;;;;;10.35;6.07;;;;;;;;;;2056951;28;20031;-95
2023/07/25 03:23:38;;;;;;;6.07;4.80;;;;;;;;;;2064555;28;20486;-96
2023/07/25 03:24:38;;;;;;;7.25;5.13;;;;;;;;;;2064635;28;20517;-96
2023/07/25 03:25:38;;;;;;;7.88;6.00;;;;;;;;;;2064745;28;20038;-95
2023/07/25 03:26:39;;;;;;;8.90;5.20;;;;;;;;;;2064907;28;20035;-95
2023/07/25 03:27:39;;;;;;;10.38;5.78;;;;;;;;;;2064998;28;20104;-95
2023/07/25 03:28:40;;;;;;;9.57;5.30;;;;;;;;;;2056710;28;20023;-95
2023/07/25 03:29:40;;;;;;;7.32;5.40;;;;;;;;;;2064702;28;20030;-95
2023/07/25 03:30:41;;;;;;;9.63;5.75;;;;;;;;;;2056915;28;20038;-95
2023/07/25 03:31:41;;;;;;;6.90;5.22;;;;;;;;;;2064986;28;20041;-95
2023/07/25 03:32:42;;;;;;;8.73;5.18;;;;;;;;;;2065300;28;20115;-95
2023/07/25 03:33:42;;;;;;;9.85;5.20;;;;;;;;;;2064912;28;20030;-95
2023/07/25 03:34:43;;;;;;;8.57;5.28;;;;;;;;;;2064880;28;20070;-95
2023/07/25 03:35:43;;;;;;;7.72;5.60;;;;;;;;;;2072942;28;20034;-96
2023/07/25 03:36:44;;;;;;;7.15;5.20;;;;;;;;;;2081827;28;20033;-94
2023/07/25 03:37:44;;;;;;;9.27;5.90;;;;;;;;;;2064882;28;20449;-95
2023/07/25 03:38:45;;;;;;;8.85;5.45;;;;;;;;;;2057278;28;20507;-95
2023/07/25 03:39:45;;;;;;;8.10;5.00;;;;;;;;;;2064836;28;20126;-95
2023/07/25 03:40:46;;;;;;;7.07;5.22;;;;;;;;;;2065139;28;20377;-96
2023/07/25 03:41:46;;;;;;;9.18;5.82;;;;;;;;;;2065057;28;20031;-94
2023/07/25 03:42:46;;;;;;;8.73;5.68;;;;;;;;;;2056740;28;20034;-96
2023/07/25 03:43:47;;;;;;;10.38;5.32;;;;;;;;;;2056705;28;20027;-95
2023/07/25 03:44:47;;;;;;;7.07;5.43;;;;;;;;;;2056902;28;20034;-95
2023/07/25 03:45:48;;;;;;;8.43;5.88;;;;;;;;;;2057698;28;20398;-94
2023/07/25 03:46:48;;;;;;;10.20;6.10;;;;;;;;;;2057205;28;20502;-94
2023/07/25 03:47:49;;;;;;;8.22;5.52;;;;;;;;;;1711595;28;10256690;-96
2023/07/25 03:48:49;;;;;;;8.38;6.32;;;;;;;;;;2056678;28;20134;-96
2023/07/25 03:49:51;;;;;;;8.57;6.47;;;;;;;;;;2068259;28;20133;-95
2023/07/25 03:50:52;;;;;;;9.07;5.63;;;;;;;;;;2071170;28;20023;-94
2023/07/25 03:51:52;;;;;;;8.75;5.63;;;;;;;;;;2060019;28;20532;-94
2023/07/25 03:52:53;;;;;;;7.47;5.30;;;;;;;;;;2064799;28;20034;-95
2023/07/25 03:53:53;;;;;;;9.57;5.47;;;;;;;;;;2064634;28;20062;-95
2023/07/25 03:54:53;;;;;;;10.05;6.05;;;;;;;;;;2056527;28;20026;-95
2023/07/25 03:55:54;;;;;;;9.73;5.80;;;;;;;;;;2056759;28;20468;-95
2023/07/25 03:56:54;;;;;;;9.82;6.15;;;;;;;;;;2064734;28;20462;-96
2023/07/25 03:57:55;;;;;;;8.63;6.03;;;;;;;;;;2064698;28;20022;-95
2023/07/25 03:58:55;;;;;;;7.75;5.72;;;;;;;;;;2056541;28;20105;-95
2023/07/25 03:59:56;;;;;;;10.57;5.85;;;;;;;;;;2056574;28;20026;-95
2023/07/25 04:00:56;;;;;;;8.82;5.60;;;;;;;;;;1713386;28;10000997;-94
2023/07/25 04:01:57;;;;;;;8.25;6.20;;;;;;;;;;2064648;28;20030;-94
2023/07/25 04:02:57;;;;;;;9.07;6.53;;;;;;;;;;2072738;28;20501;-95
2023/07/25 04:03:57;;;;;;;8.63;6.97;;;;;;;;;;2072751;28;20021;-96
2023/07/25 04:04:58;;;;;;;8.55;5.65;;;;;;;;;;2056704;28;20019;-94
2023/07/25 04:05:59;;;;;;;12.27;6.10;;;;;;;;;;2056575;28;20027;-95
2023/07/25 04:07:00;;;;;;;9.25;5.93;;;;;;;;;;2056905;28;20033;-95
2023/07/25 04:08:04;;;;;;;9.25;6.82;;;;;;;;;;2056796;28;20042;-96
2023/07/25 04:09:04;;;;;;;8.70;6.03;;;;;;;;;;2064704;28;20117;-95
2023/07/25 04:10:05;;;;;;;9.52;6.05;;;;;;;;;;2056529;28;20027;-96
2023/07/25 04:11:06;;;;;;;12.85;6.07;;;;;;;;;;2056337;28;20026;-95
2023/07/25 04:12:07;;;;;;;7.80;6.05;;;;;;;;;;2056850;28;20022;-95
2023/07/25 04:13:10;;;;;;;9.43;6.88;;;;;;;;;;2056691;28;20042;-95
2023/07/25 04:22:11;;;;;;;9.77;5.55;;;;;;;;;;221625;26;20439;-95
2023/07/25 04:23:12;;;;;;;11.68;5.72;;;;;;;;;;2055794;28;20072;-94
2023/07/25 04:24:12;;;;;;;9.38;5.90;;;;;;;;;;2050157;28;20083;-95
2023/07/25 04:25:13;;;;;;;7.78;5.97;;;;;;;;;;2058109;28;20226;-94
2023/07/25 04:26:13;;;;;;;10.75;6.68;;;;;;;;;;2058704;28;20025;-94
2023/07/25 04:27:14;;;;;;;11.00;5.60;;;;;;;;;;2051134;28;20035;-95
2023/07/25 04:28:14;;;;;;;8.63;6.10;;;;;;;;;;2058598;28;20487;-94
2023/07/25 04:29:15;;;;;;;9.43;5.57;;;;;;;;;;2065835;28;20050;-94
2023/07/25 04:30:15;;;;;;;12.73;6.47;;;;;;;;;;2057438;28;20053;-93
2023/07/25 04:31:16;;;;;;;9.38;6.28;;;;;;;;;;2056507;28;20078;-94
2023/07/25 04:32:16;;;;;;;10.13;6.32;;;;;;;;;;2064325;28;20022;-94
2023/07/25 04:33:17;;;;;;;10.35;6.45;;;;;;;;;;1696935;28;10428215;-95
2023/07/25 04:34:17;;;;;;;8.73;6.20;;;;;;;;;;2048328;28;20115;-95
2023/07/25 04:35:20;;;;;;;9.50;6.00;;;;;;;;;;2056672;28;20118;-94
2023/07/25 04:36:20;;;;;;;8.10;6.68;;;;;;;;;;2056101;28;20034;-95
2023/07/25 04:37:21;;;;;;;13.88;5.53;;;;;;;;;;2050282;28;20042;-96
2023/07/25 04:38:21;;;;;;;8.30;5.90;;;;;;;;;;2064245;28;20074;-92
2023/07/25 04:39:22;;;;;;;9.35;6.40;;;;;;;;;;2053417;29;20038;-95
2023/07/25 04:40:22;;;;;;;8.95;5.78;;;;;;;;;;2056468;28;20466;-94
2023/07/25 04:41:23;;;;;;;9.13;6.00;;;;;;;;;;2056459;28;20466;-94
2023/07/25 04:42:23;;;;;;;9.30;5.68;;;;;;;;;;2056344;28;20034;-95
2023/07/25 04:43:24;;;;;;;9.73;5.88;;;;;;;;;;2056689;28;20030;-95
2023/07/25 04:44:24;;;;;;;9.00;6.20;;;;;;;;;;2064148;28;20026;-95
2023/07/25 04:45:25;;;;;;;8.32;5.72;;;;;;;;;;2048501;29;20035;-95
2023/07/25 04:46:29;;;;;;;9.77;5.72;;;;;;;;;;2056181;28;20027;-96
2023/07/25 04:47:30;;;;;;;10.07;6.38;;;;;;;;;;2048869;28;20043;-95
2023/07/25 04:48:31;;;;;;;8.95;5.88;;;;;;;;;;2048407;29;20039;-95
2023/07/25 04:49:31;;;;;;;10.45;5.47;;;;;;;;;;2056194;28;20018;-96
2023/07/25 04:50:35;;;;;;;7.55;5.22;;;;;;;;;;2065566;28;20506;-95
2023/07/25 04:51:35;;;;;;;7.63;5.72;;;;;;;;;;2049558;28;20058;-95
2023/07/25 04:52:36;;;;;;;8.73;5.82;;;;;;;;;;2051511;28;20033;-95
2023/07/25 04:53:36;;;;;;;11.00;6.47;;;;;;;;;;2062734;28;20541;-93
2023/07/25 04:54:37;;;;;;;11.48;6.43;;;;;;;;;;2065785;28;20023;-93
2023/07/25 04:55:37;;;;;;;13.13;6.50;;;;;;;;;;2071269;28;20498;-95
2023/07/25 04:56:40;;;;;;;9.23;6.70;;;;;;;;;;2050560;29;20447;-94
2023/07/25 04:57:40;;;;;;;10.00;6.28;;;;;;;;;;2050411;28;20023;-94
2023/07/25 04:58:41;;;;;;;8.70;6.18;;;;;;;;;;2057500;28;20031;-94
2023/07/25 04:59:43;;;;;;;8.65;6.00;;;;;;;;;;2058174;28;20092;-95
2023/07/25 05:00:44;;;;;;;9.70;5.88;;;;;;;;;;2050162;28;20038;-95
2023/07/25 05:01:44;;;;;;;9.13;5.82;;;;;;;;;;2057976;28;20494;-95
2023/07/25 05:02:45;;;;;;;9.20;5.50;;;;;;;;;;2057504;28;20045;-95
2023/07/25 05:03:45;;;;;;;14.07;6.53;;;;;;;;;;2057816;28;20031;-95
2023/07/25 05:04:46;;;;;;;10.43;5.38;;;;;;;;;;2057641;28;20026;-96
2023/07/25 05:06:11;;;;;;;10.38;5.57;;;;;;;;;;2050264;28;20027;-96
2023/07/25 05:07:13;;;;;;;9.20;5.55;;;;;;;;;;2060996;28;20023;-96
2023/07/25 05:08:13;;;;;;;11.15;5.25;;;;;;;;;;2058175;28;20075;-96
2023/07/25 05:09:16;;;;;;;9.25;5.45;;;;;;;;;;2049968;29;20031;-95
2023/07/25 05:10:16;;;;;;;7.45;5.20;;;;;;;;;;2058210;28;20133;-95
2023/07/25 05:11:17;;;;;;;7.18;5.07;;;;;;;;;;2057610;28;20023;-96
2023/07/25 05:12:17;;;;;;;6.03;4.97;;;;;;;;;;2057855;28;20030;-96
2023/07/25 05:13:18;;;;;;;9.90;5.78;;;;;;;;;;2058290;28;20037;-96
2023/07/25 05:14:19;;;;;;;10.25;5.07;;;;;;;;;;2057798;28;20031;-96
2023/07/25 05:15:21;;;;;;;7.80;4.75;;;;;;;;;;2065458;28;20042;-95
2023/07/25 05:16:22;;;;;;;5.82;4.65;;;;;;;;;;2057567;28;20173;-96
2023/07/25 05:17:23;;;;;;;7.40;5.00;;;;;;;;;;2049545;29;20460;-96
2023/07/25 05:18:23;;;;;;;11.13;5.60;;;;;;;;;;2057825;28;20030;-96
2023/07/25 05:19:24;;;;;;;9.77;5.45;;;;;;;;;;2058075;28;20430;-96
2023/07/25 05:20:24;;;;;;;9.10;5.80;;;;;;;;;;2057520;28;20066;-96
2023/07/25 05:21:25;;;;;;;10.35;6.20;;;;;;;;;;2057993;28;20077;-96
2023/07/25 05:22:25;;;;;;;10.32;5.30;;;;;;;;;;2049317;29;20027;-95
2023/07/25 05:23:26;;;;;;;11.70;5.70;;;;;;;;;;2049895;29;20023;-96
2023/07/25 05:24:26;;;;;;;11.25;5.60;;;;;;;;;;2049957;29;20046;-95
2023/07/25 05:25:27;;;;;;;9.23;5.82;;;;;;;;;;2054639;28;20027;-95
2023/07/25 05:26:27;;;;;;;8.25;5.75;;;;;;;;;;2064203;28;20130;-96
2023/07/25 05:27:28;;;;;;;8.93;6.20;;;;;;;;;;2066244;28;20046;-96
2023/07/25 05:28:28;;;;;;;9.68;6.00;;;;;;;;;;2057637;28;20027;-96
2023/07/25 05:29:30;;;;;;;10.40;5.72;;;;;;;;;;2049567;28;20485;-96
2023/07/25 05:30:32;;;;;;;8.73;6.03;;;;;;;;;;2049845;28;20101;-96
2023/07/25 05:31:35;;;;;;;9.95;6.57;;;;;;;;;;2057835;28;20462;-96
2023/07/25 05:32:39;;;;;;;12.85;7.07;;;;;;;;;;2050286;28;20487;-96
2023/07/25 05:33:39;;;;;;;12.10;6.80;;;;;;;;;;2049803;28;20069;-96
2023/07/25 05:34:40;;;;;;;12.52;7.95;;;;;;;;;;2057776;28;20029;-96
2023/07/25 05:35:40;;;;;;;17.25;8.55;;;;;;;;;;2057836;28;20126;-96
2023/07/25 05:36:41;;;;;;;19.00;8.93;;;;;;;;;;2057891;28;20034;-95
2023/07/25 05:37:47;;;;;;;15.95;8.60;;;;;;;;;;1707502;28;10206759;-96
2023/07/25 05:38:48;;;;;;;21.05;9.30;;;;;;;;;;2058854;28;20034;-96
2023/07/25 05:39:51;;;;;;;18.05;8.70;;;;;;;;;;2058231;28;20092;-96
2023/07/25 05:40:53;;;;;;;15.10;8.60;;;;;;;;;;2050369;28;20023;-96
2023/07/25 05:41:54;;;;;;;17.02;9.27;;;;;;;;;;2058828;28;20026;-95
2023/07/25 05:42:54;;;;;;;18.25;8.55;;;;;;;;;;2059612;28;20109;-94
2023/07/25 05:43:55;;;;;;;18.83;9.23;;;;;;;;;;2059216;28;20030;-95
2023/07/25 05:44:57;;;;;;;15.88;8.65;;;;;;;;;;2051519;28;20125;-94
2023/07/25 05:45:57;;;;;;;18.60;8.52;;;;;;;;;;2059219;28;20029;-95
2023/07/25 05:46:58;;;;;;;14.13;8.40;;;;;;;;;;2058072;28;20109;-96
2023/07/25 05:47:59;;;;;;;16.27;8.27;;;;;;;;;;2057637;28;20108;-96
2023/07/25 05:48:59;;;;;;;15.18;7.97;;;;;;;;;;2057710;28;20076;-96
2023/07/25 05:50:00;;;;;;;19.02;8.27;;;;;;;;;;2057478;28;20077;-95
2023/07/25 05:51:00;;;;;;;21.73;8.70;;;;;;;;;;2057519;28;20030;-95
2023/07/25 05:52:01;;;;;;;13.70;7.60;;;;;;;;;;2057899;28;20110;-95
2023/07/25 05:53:01;;;;;;;18.67;7.40;;;;;;;;;;2049268;28;20542;-96
2023/07/25 05:54:02;;;;;;;22.30;9.00;;;;;;;;;;2059135;28;20150;-96
2023/07/25 05:55:03;;;;;;;23.13;8.55;;;;;;;;;;2058594;28;20455;-96
2023/07/25 05:56:06;;;;;;;20.88;7.45;;;;;;;;;;2057432;28;20060;-96
2023/07/25 05:57:07;;;;;;;17.38;7.82;;;;;;;;;;2057490;28;20117;-96
2023/07/25 05:58:08;;;;;;;14.23;8.05;;;;;;;;;;2049074;29;20031;-96
2023/07/25 05:59:09;;;;;;;14.95;8.05;;;;;;;;;;2059666;28;20046;-96
2023/07/25 06:00:10;;;;;;;16.33;8.10;;;;;;;;;;2058069;28;20189;-95
2023/07/25 06:01:11;;;;;;;15.02;7.70;;;;;;;;;;2057836;28;20475;-95
2023/07/25 06:02:12;;;;;;;12.45;7.20;;;;;;;;;;2059722;28;20113;-96
2023/07/25 06:03:14;;;;;;;12.63;7.40;;;;;;;;;;2057834;28;20027;-95
2023/07/25 06:04:15;;;;;;;10.85;6.55;;;;;;;;;;2057314;28;20050;-94
2023/07/25 06:05:15;;;;;;;12.85;7.85;;;;;;;;;;2057147;28;20062;-95
2023/07/25 06:06:16;;;;;;;12.02;7.47;;;;;;;;;;2049110;28;20038;-96
2023/07/25 06:07:16;;;;;;;11.85;6.53;;;;;;;;;;2049290;29;20038;-95
2023/07/25 06:08:17;;;;;;;9.77;6.57;;;;;;;;;;2049017;28;20027;-95
2023/07/25 06:09:17;;;;;;;8.52;6.28;;;;;;;;;;2049311;28;20061;-94
2023/07/25 06:10:18;;;;;;;9.65;7.20;;;;;;;;;;2049282;29;20038;-95
2023/07/25 06:11:21;;;;;;;12.77;7.20;;;;;;;;;;2057556;28;20042;-94